Time;durP1;ratioP1;P1;durP2;ratioP2;P2;SDS_P1;SDS_P2;PMS_P1;PMS_P2;Temp;Humidity;BMP_temperature;BMP_pressure;BME280_temperature;BME280_humidity;BME280_pressure;Samples;Min_cycle;Max_cycle;Signal;HPM_P1;HPM_P2
2021/03/31 00:00:14;;;;;;;39.83;34.47;;;5.50;99.90;;;;;;4856879;28;20190;-74
2021/03/31 00:02:36;;;;;;;43.50;35.00;;;5.40;99.90;;;;;;4836267;28;20280;-74
2021/03/31 00:04:59;;;;;;;46.47;36.87;;;5.50;99.90;;;;;;4850301;28;20260;-74
2021/03/31 00:07:21;;;;;;;36.17;31.20;;;5.50;99.90;;;;;;4857832;28;20182;-75
2021/03/31 00:09:44;;;;;;;41.47;33.83;;;;;;;;;;4840036;28;20365;-74
2021/03/31 00:12:07;;;;;;;38.10;32.30;;;5.40;99.90;;;;;;4858045;28;20185;-74
2021/03/31 00:14:29;;;;;;;40.23;32.90;;;5.40;99.90;;;;;;4856460;28;20648;-74
2021/03/31 00:16:52;;;;;;;44.10;33.80;;;5.40;99.90;;;;;;4857536;28;20190;-74
2021/03/31 00:19:14;;;;;;;40.60;33.40;;;5.30;99.90;;;;;;4857004;28;20210;-75
2021/03/31 00:21:37;;;;;;;42.03;35.80;;;5.30;99.90;;;;;;4857039;28;20185;-74
2021/03/31 00:23:59;;;;;;;40.40;34.13;;;5.20;99.90;;;;;;4857234;28;20186;-75
2021/03/31 00:26:21;;;;;;;43.33;35.10;;;5.40;99.90;;;;;;4856996;28;20194;-75
2021/03/31 00:28:43;;;;;;;38.03;31.70;;;;;;;;;;4857712;28;20221;-74
2021/03/31 00:31:05;;;;;;;36.97;31.40;;;5.10;99.90;;;;;;4856227;28;20675;-74
2021/03/31 00:33:27;;;;;;;42.60;34.90;;;4.90;99.90;;;;;;4856187;28;20263;-74
2021/03/31 00:35:50;;;;;;;39.20;31.27;;;5.20;99.90;;;;;;4856599;28;20772;-74
2021/03/31 00:38:14;;;;;;;34.63;29.47;;;5.10;99.90;;;;;;4857570;28;20190;-75
2021/03/31 00:40:38;;;;;;;33.23;29.53;;;4.80;99.90;;;;;;4839363;28;20198;-74
2021/03/31 00:43:00;;;;;;;44.03;34.83;;;4.90;99.90;;;;;;4857552;28;20181;-75
2021/03/31 00:45:23;;;;;;;37.73;31.20;;;4.90;99.90;;;;;;4852687;28;20678;-74
2021/03/31 00:47:45;;;;;;;40.20;31.50;;;5.00;99.90;;;;;;4849349;28;20194;-75
2021/03/31 00:50:10;;;;;;;37.90;31.47;;;4.90;99.90;;;;;;4855701;28;20272;-74
2021/03/31 00:52:33;;;;;;;36.73;30.07;;;4.90;99.90;;;;;;4856234;28;20186;-74
2021/03/31 00:54:56;;;;;;;36.97;30.20;;;5.00;99.90;;;;;;4839122;28;20203;-74
2021/03/31 00:57:18;;;;;;;34.27;30.30;;;4.60;99.90;;;;;;4857094;28;20753;-74
2021/03/31 00:59:40;;;;;;;32.00;27.27;;;5.00;99.90;;;;;;4855856;28;20264;-74
2021/03/31 01:02:03;;;;;;;30.83;27.43;;;4.70;99.90;;;;;;4853876;28;20234;-74
2021/03/31 01:04:26;;;;;;;36.83;28.47;;;;;;;;;;4854724;28;20224;-74
2021/03/31 01:06:48;;;;;;;34.93;28.90;;;4.80;99.90;;;;;;4855610;28;20607;-74
2021/03/31 01:09:10;;;;;;;31.33;26.60;;;4.70;99.90;;;;;;4855623;28;20194;-74
2021/03/31 01:11:43;;;;;;;30.43;25.97;;;4.80;99.90;;;;;;4856168;28;20190;-74
2021/03/31 01:14:12;;;;;;;37.27;30.23;;;4.80;99.90;;;;;;4855687;28;20194;-75
2021/03/31 01:16:42;;;;;;;35.87;29.93;;;4.70;99.90;;;;;;4856194;28;20721;-74
2021/03/31 01:19:26;;;;;;;35.17;28.93;;;4.40;99.90;;;;;;4855338;28;20194;-74
2021/03/31 01:22:09;;;;;;;35.57;31.23;;;4.70;99.90;;;;;;4845554;28;20182;-74
2021/03/31 01:25:02;;;;;;;38.13;31.67;;;4.70;99.90;;;;;;4849703;28;20203;-74
2021/03/31 01:27:35;;;;;;;35.10;30.87;;;4.30;99.90;;;;;;4846385;28;20197;-74
2021/03/31 01:30:07;;;;;;;42.20;32.17;;;4.40;99.90;;;;;;4848658;28;20668;-74
2021/03/31 01:33:02;;;;;;;35.27;29.00;;;4.40;99.90;;;;;;4854867;28;20206;-74
2021/03/31 01:35:26;;;;;;;37.40;30.40;;;4.40;99.90;;;;;;4854782;28;20194;-75
2021/03/31 01:37:52;;;;;;;43.07;35.87;;;4.40;99.90;;;;;;4852525;28;20226;-74
2021/03/31 01:40:19;;;;;;;37.67;31.90;;;4.50;99.90;;;;;;4844667;28;20540;-74
2021/03/31 01:42:47;;;;;;;40.83;32.57;;;4.40;99.90;;;;;;4855863;28;20260;-75
2021/03/31 01:45:11;;;;;;;41.40;32.47;;;4.40;99.90;;;;;;4855693;28;20524;-74
2021/03/31 01:47:37;;;;;;;32.60;27.83;;;4.40;99.90;;;;;;4852065;28;20595;-74
2021/03/31 01:50:00;;;;;;;32.17;27.60;;;4.40;99.90;;;;;;4855372;28;20272;-75
2021/03/31 01:52:24;;;;;;;34.87;29.80;;;4.20;99.90;;;;;;4855372;28;20210;-74
2021/03/31 01:54:47;;;;;;;37.50;30.27;;;4.20;99.90;;;;;;4851600;28;20588;-74
2021/03/31 01:57:11;;;;;;;36.80;30.07;;;4.30;99.90;;;;;;4848265;28;20206;-75
2021/03/31 01:59:35;;;;;;;32.87;28.17;;;4.10;99.90;;;;;;4838776;28;20195;-74
2021/03/31 02:01:58;;;;;;;36.33;29.80;;;4.20;99.90;;;;;;4853798;28;20237;-73
2021/03/31 02:04:22;;;;;;;37.67;31.87;;;4.10;99.90;;;;;;4855375;28;20190;-74
2021/03/31 02:06:45;;;;;;;33.47;29.43;;;4.30;99.90;;;;;;4838423;28;20267;-74
2021/03/31 02:09:10;;;;;;;31.63;27.07;;;4.30;99.90;;;;;;4855653;28;20205;-74
2021/03/31 02:11:32;;;;;;;31.83;26.80;;;4.20;99.90;;;;;;4852300;28;20699;-74
2021/03/31 02:13:56;;;;;;;32.10;26.80;;;4.20;99.90;;;;;;4837101;28;20256;-74
2021/03/31 02:16:19;;;;;;;34.93;28.87;;;4.10;99.90;;;;;;4842054;28;20247;-74
2021/03/31 02:18:42;;;;;;;36.53;30.07;;;4.10;99.90;;;;;;4857290;28;20239;-74
2021/03/31 02:21:05;;;;;;;37.20;30.13;;;4.10;99.90;;;;;;4859314;28;20198;-74
2021/03/31 02:23:28;;;;;;;34.93;29.33;;;4.10;99.90;;;;;;4854693;28;20190;-74
2021/03/31 02:25:51;;;;;;;35.80;30.53;;;4.00;99.90;;;;;;4859283;28;20186;-74
2021/03/31 02:28:14;;;;;;;36.67;29.87;;;4.00;99.90;;;;;;4860234;28;20182;-74
2021/03/31 02:30:36;;;;;;;38.60;30.13;;;3.90;99.90;;;;;;4841418;28;20676;-74
2021/03/31 02:33:00;;;;;;;42.30;35.10;;;3.60;99.90;;;;;;4859531;28;20671;-74
2021/03/31 02:35:23;;;;;;;39.77;32.73;;;4.60;99.90;;;;;;4857747;28;20233;-73
2021/03/31 02:37:48;;;;;;;40.27;32.87;;;4.00;99.90;;;;;;4859431;28;20222;-74
2021/03/31 02:40:12;;;;;;;31.80;26.27;;;4.00;99.90;;;;;;4843862;28;20260;-75
2021/03/31 02:42:35;;;;;;;34.40;28.57;;;4.70;99.90;;;;;;4858142;28;20197;-74
2021/03/31 02:45:00;;;;;;;37.43;30.43;;;3.80;99.90;;;;;;4856939;28;20198;-75
2021/03/31 02:47:26;;;;;;;40.03;33.23;;;3.50;99.90;;;;;;4859360;28;20248;-75
2021/03/31 02:49:51;;;;;;;45.37;34.07;;;4.00;99.90;;;;;;4857801;28;20244;-74
2021/03/31 02:52:16;;;;;;;43.23;33.87;;;3.90;99.90;;;;;;4859316;28;20194;-73
2021/03/31 02:54:40;;;;;;;45.57;36.90;;;3.90;99.90;;;;;;4853658;28;20202;-74
2021/03/31 02:57:03;;;;;;;43.37;34.13;;;3.90;99.90;;;;;;4844385;28;20261;-73
2021/03/31 02:59:27;;;;;;;44.60;36.10;;;3.80;99.90;;;;;;4841729;28;20225;-74
2021/03/31 03:01:49;;;;;;;45.67;35.53;;;3.80;99.90;;;;;;4856026;28;20565;-74
2021/03/31 03:04:12;;;;;;;33.83;29.50;;;3.50;99.90;;;;;;4856934;28;20948;-74
2021/03/31 03:06:34;;;;;;;35.77;30.73;;;3.70;99.90;;;;;;4857747;28;20177;-74
2021/03/31 03:08:58;;;;;;;38.80;30.87;;;3.70;99.90;;;;;;4859603;28;20228;-74
2021/03/31 03:11:21;;;;;;;43.43;32.93;;;3.70;99.90;;;;;;4841363;28;20230;-75
2021/03/31 03:13:46;;;;;;;43.00;33.57;;;3.70;99.90;;;;;;4857629;28;20259;-74
2021/03/31 03:16:10;;;;;;;51.30;36.90;;;3.70;99.90;;;;;;4856059;28;20244;-75
2021/03/31 03:18:33;;;;;;;54.87;39.00;;;3.80;99.90;;;;;;4857749;28;20256;-74
2021/03/31 03:20:55;;;;;;;46.47;37.00;;;3.60;99.90;;;;;;4856773;28;20251;-75
2021/03/31 03:23:19;;;;;;;49.67;38.27;;;3.60;99.90;;;;;;4856942;28;20186;-74
2021/03/31 03:25:41;;;;;;;53.77;41.13;;;3.60;99.90;;;;;;4857558;28;20198;-74
2021/03/31 03:28:05;;;;;;;44.33;34.83;;;3.60;99.90;;;;;;4840866;28;20187;-74
2021/03/31 03:30:27;;;;;;;49.27;36.67;;;3.50;99.90;;;;;;4857183;28;20234;-74
2021/03/31 03:32:51;;;;;;;55.10;40.53;;;3.50;99.90;;;;;;4856863;28;20186;-74
2021/03/31 03:35:15;;;;;;;45.10;36.50;;;3.30;99.90;;;;;;4840685;28;20198;-74
2021/03/31 03:37:38;;;;;;;54.73;39.27;;;3.40;99.90;;;;;;4858043;28;20295;-75
2021/03/31 03:40:02;;;;;;;105.03;49.17;;;3.50;99.90;;;;;;4854739;28;20182;-74
2021/03/31 03:42:24;;;;;;;66.70;45.40;;;;;;;;;;4856730;28;20190;-74
2021/03/31 03:44:46;;;;;;;61.20;43.53;;;3.60;99.90;;;;;;4857549;28;20186;-74
2021/03/31 03:47:08;;;;;;;65.63;45.13;;;3.10;99.90;;;;;;4857583;28;20194;-74
2021/03/31 03:49:36;;;;;;;67.23;46.97;;;3.50;99.90;;;;;;4858393;28;20236;-75
2021/03/31 03:51:58;;;;;;;60.63;43.37;;;3.30;99.90;;;;;;4856969;28;20245;-75
2021/03/31 03:54:21;;;;;;;63.87;44.37;;;3.60;99.90;;;;;;4858080;28;20182;-74
2021/03/31 03:56:47;;;;;;;155.57;59.00;;;3.50;99.90;;;;;;4857285;28;20220;-74
2021/03/31 03:59:23;;;;;;;79.27;49.63;;;3.40;99.90;;;;;;4858329;28;20190;-75
2021/03/31 04:01:45;;;;;;;66.57;44.80;;;3.40;99.90;;;;;;4846204;28;20293;-74
2021/03/31 04:04:07;;;;;;;73.80;47.50;;;;;;;;;;4847117;28;20198;-75
2021/03/31 04:06:30;;;;;;;65.33;45.30;;;3.40;99.90;;;;;;4855653;28;20220;-74
2021/03/31 04:08:52;;;;;;;63.40;44.33;;;3.60;99.90;;;;;;4854009;28;20248;-74
2021/03/31 04:11:14;;;;;;;60.13;42.87;;;3.40;99.90;;;;;;4871667;28;20224;-75
2021/03/31 04:13:37;;;;;;;58.03;42.77;;;;;;;;;;4857616;28;20201;-74
2021/03/31 04:16:05;;;;;;;56.53;41.73;;;3.30;99.90;;;;;;4855943;28;20198;-75
2021/03/31 04:18:29;;;;;;;61.43;43.00;;;3.40;99.90;;;;;;4857553;28;20221;-74
2021/03/31 04:20:52;;;;;;;58.57;42.43;;;3.70;99.90;;;;;;4856887;28;20213;-75
2021/03/31 04:23:15;;;;;;;50.27;38.17;;;3.20;99.90;;;;;;4855801;28;20198;-74
2021/03/31 04:25:38;;;;;;;50.97;39.00;;;3.10;99.90;;;;;;4856655;28;20194;-74
2021/03/31 04:28:07;;;;;;;55.17;41.23;;;3.20;99.90;;;;;;4856822;28;20276;-75
2021/03/31 04:30:30;;;;;;;63.37;45.57;;;3.30;99.90;;;;;;4856218;28;20214;-75
2021/03/31 04:32:53;;;;;;;56.30;41.00;;;3.00;99.90;;;;;;4857863;28;20623;-74
2021/03/31 04:35:17;;;;;;;61.70;45.13;;;3.30;99.90;;;;;;4856655;28;20182;-74
2021/03/31 04:37:39;;;;;;;51.57;40.53;;;3.30;99.90;;;;;;4854688;28;20344;-74
2021/03/31 04:40:05;;;;;;;48.57;38.87;;;3.10;99.90;;;;;;4857837;28;20186;-74
2021/03/31 04:42:27;;;;;;;58.60;42.83;;;;;;;;;;4856594;28;20216;-74
2021/03/31 04:44:49;;;;;;;57.00;41.77;;;;;;;;;;4856885;28;20186;-74
2021/03/31 04:47:11;;;;;;;50.80;38.37;;;3.40;99.90;;;;;;4856898;28;20236;-74
2021/03/31 04:49:33;;;;;;;54.07;41.47;;;;;;;;;;4856715;28;20609;-75
2021/03/31 04:51:55;;;;;;;60.17;42.70;;;3.60;99.90;;;;;;4857318;28;20271;-74
2021/03/31 04:54:18;;;;;;;138.70;47.87;;;3.60;99.90;;;;;;4857122;28;20201;-74
2021/03/31 04:56:41;;;;;;;83.00;52.07;;;3.90;99.90;;;;;;4855123;28;20271;-74
2021/03/31 04:59:03;;;;;;;286.93;57.30;;;3.60;99.90;;;;;;4857159;28;20182;-74
2021/03/31 05:01:26;;;;;;;80.70;49.70;;;3.80;99.90;;;;;;4851808;28;20272;-74
2021/03/31 05:03:48;;;;;;;74.70;47.83;;;3.90;99.90;;;;;;4856457;28;20248;-74
2021/03/31 05:06:10;;;;;;;61.80;46.33;;;4.20;99.90;;;;;;4855540;28;20702;-74
2021/03/31 05:08:33;;;;;;;60.33;45.17;;;4.00;99.90;;;;;;4855261;28;20197;-74
2021/03/31 05:10:55;;;;;;;61.13;44.57;;;4.20;99.90;;;;;;4856843;28;20213;-74
2021/03/31 05:13:18;;;;;;;59.53;46.00;;;4.30;99.90;;;;;;4855613;28;20580;-74
2021/03/31 05:15:41;;;;;;;63.27;45.80;;;5.30;99.90;;;;;;4856091;28;20194;-74
2021/03/31 05:18:03;;;;;;;65.93;48.00;;;4.40;99.90;;;;;;4855654;28;20198;-74
2021/03/31 05:20:25;;;;;;;74.97;50.17;;;4.00;99.90;;;;;;4852990;28;20232;-75
2021/03/31 05:22:47;;;;;;;67.13;45.47;;;4.50;99.90;;;;;;4840632;28;20257;-74
2021/03/31 05:25:10;;;;;;;65.33;46.17;;;4.90;99.90;;;;;;4838611;28;20198;-75
2021/03/31 05:27:33;;;;;;;87.20;53.43;;;4.70;99.90;;;;;;4855285;28;20733;-74
2021/03/31 05:29:56;;;;;;;79.13;50.87;;;5.00;99.90;;;;;;4855006;28;20186;-75
2021/03/31 05:32:18;;;;;;;80.77;54.43;;;5.00;99.90;;;;;;4855864;28;20252;-74
2021/03/31 05:34:40;;;;;;;80.77;53.73;;;5.10;99.90;;;;;;4854156;28;20240;-74
2021/03/31 05:37:02;;;;;;;79.17;53.33;;;5.20;99.90;;;;;;4856477;28;20761;-73
2021/03/31 05:39:24;;;;;;;76.33;54.13;;;5.40;99.90;;;;;;4855731;28;20240;-74
2021/03/31 05:41:46;;;;;;;82.27;59.03;;;5.50;99.90;;;;;;4856231;28;20186;-74
2021/03/31 05:44:09;;;;;;;79.43;58.53;;;5.80;99.90;;;;;;4856650;28;20564;-74
2021/03/31 05:46:32;;;;;;;82.37;60.43;;;5.90;99.90;;;;;;4854723;28;20201;-74
2021/03/31 05:48:55;;;;;;;82.37;60.03;;;6.00;99.90;;;;;;4855652;28;20194;-75
2021/03/31 05:51:17;;;;;;;88.23;61.17;;;6.20;99.90;;;;;;4855996;28;20214;-74
2021/03/31 05:53:39;;;;;;;86.97;61.77;;;6.30;99.90;;;;;;4857632;28;20190;-74
2021/03/31 05:56:02;;;;;;;86.77;62.43;;;6.50;99.90;;;;;;4860136;28;20210;-74
2021/03/31 05:58:24;;;;;;;82.30;60.90;;;6.60;99.90;;;;;;4859237;28;20206;-74
2021/03/31 06:00:47;;;;;;;83.30;61.47;;;6.80;99.90;;;;;;4856949;28;20475;-74
2021/03/31 06:03:10;;;;;;;85.17;61.97;;;7.20;99.90;;;;;;4859541;28;20183;-74
2021/03/31 06:05:33;;;;;;;90.47;65.60;;;7.40;99.90;;;;;;4858967;28;20268;-74
2021/03/31 06:07:55;;;;;;;86.37;63.67;;;7.60;99.90;;;;;;4860130;28;20186;-75
2021/03/31 06:10:18;;;;;;;76.47;59.80;;;8.00;99.90;;;;;;4858975;28;20210;-74
2021/03/31 06:12:42;;;;;;;66.63;55.13;;;8.30;99.90;;;;;;4858068;28;20225;-75
2021/03/31 06:15:17;;;;;;;71.90;57.33;;;8.70;99.90;;;;;;4857505;28;20591;-74
2021/03/31 06:17:52;;;;;;;61.20;51.63;;;8.90;99.90;;;;;;4859565;28;20185;-75
2021/03/31 06:20:39;;;;;;;49.87;43.13;;;9.60;99.90;;;;;;4858372;28;20247;-75
2021/03/31 06:23:10;;;;;;;46.57;41.13;;;9.00;99.90;;;;;;4853536;28;20182;-74
2021/03/31 06:25:32;;;;;;;34.50;31.00;;;9.50;99.90;;;;;;4859216;28;20185;-75
2021/03/31 06:27:57;;;;;;;30.47;27.47;;;9.50;99.90;;;;;;4859328;28;20186;-73
2021/03/31 06:30:23;;;;;;;30.93;27.87;;;9.70;99.90;;;;;;4858436;28;20221;-74
2021/03/31 06:32:45;;;;;;;26.13;23.47;;;9.30;99.90;;;;;;4859281;28;20744;-76
2021/03/31 06:35:18;;;;;;;18.20;16.43;;;10.20;99.90;;;;;;4858844;28;20240;-75
2021/03/31 06:37:40;;;;;;;18.33;16.37;;;9.70;99.90;;;;;;4859861;28;20230;-75
2021/03/31 06:40:05;;;;;;;16.43;14.87;;;10.00;99.90;;;;;;4859907;28;20186;-74
2021/03/31 06:42:39;;;;;;;16.37;14.63;;;10.20;99.90;;;;;;4838741;28;20652;-75
2021/03/31 06:45:06;;;;;;;15.13;13.67;;;10.40;99.90;;;;;;4840313;28;20182;-75
2021/03/31 06:47:31;;;;;;;14.43;12.97;;;10.40;99.90;;;;;;4840892;28;20257;-75
2021/03/31 06:49:55;;;;;;;12.97;11.70;;;11.30;98.20;;;;;;4844823;28;20192;-75
2021/03/31 06:52:18;;;;;;;11.57;10.43;;;11.70;88.50;;;;;;4858005;28;20296;-74
2021/03/31 06:54:43;;;;;;;11.67;10.13;;;11.60;40.70;;;;;;4854347;28;20704;-74
2021/03/31 06:57:05;;;;;;;11.80;10.57;;;11.60;40.30;;;;;;4856764;28;20586;-76
2021/03/31 06:59:28;;;;;;;9.73;8.80;;;11.80;21.30;;;;;;4858138;28;20734;-75
2021/03/31 07:01:52;;;;;;;9.23;8.37;;;12.00;6.10;;;;;;4852187;28;20244;-75
2021/03/31 07:04:15;;;;;;;8.23;7.23;;;12.20;1.00;;;;;;4857167;28;20252;-75
2021/03/31 07:06:37;;;;;;;7.10;6.43;;;12.00;1.00;;;;;;4857854;28;20186;-76
2021/03/31 07:09:00;;;;;;;7.93;7.13;;;12.70;1.00;;;;;;4858496;28;20204;-75
2021/03/31 07:11:36;;;;;;;7.40;6.80;;;12.60;1.00;;;;;;4859366;28;20209;-75
2021/03/31 07:14:01;;;;;;;8.03;7.27;;;12.90;1.00;;;;;;4871078;28;20189;-75
2021/03/31 07:16:24;;;;;;;6.43;5.80;;;12.70;1.00;;;;;;4851163;28;20244;-75
2021/03/31 07:18:46;;;;;;;6.77;5.83;;;13.20;1.00;;;;;;4854969;28;20257;-75
2021/03/31 07:21:09;;;;;;;5.90;5.40;;;12.50;1.00;;;;;;4857959;28;20697;-74
2021/03/31 07:23:31;;;;;;;6.37;5.83;;;;;;;;;;4849645;28;20192;-74
2021/03/31 07:25:56;;;;;;;5.83;5.30;;;12.70;1.00;;;;;;4854928;28;20190;-74
2021/03/31 07:28:24;;;;;;;5.13;4.73;;;12.10;1.00;;;;;;4857465;28;20198;-75
2021/03/31 07:30:47;;;;;;;5.70;5.13;;;12.80;1.00;;;;;;4858381;28;20194;-74
2021/03/31 07:33:13;;;;;;;5.63;5.20;;;13.30;1.00;;;;;;4849011;28;20214;-75
2021/03/31 07:35:37;;;;;;;5.73;5.23;;;13.00;1.00;;;;;;4855971;28;20255;-75
2021/03/31 07:38:01;;;;;;;5.23;4.73;;;13.60;1.00;;;;;;4854992;28;20257;-75
2021/03/31 07:40:23;;;;;;;5.37;4.90;;;13.40;1.00;;;;;;4856443;28;20190;-76
2021/03/31 07:42:53;;;;;;;5.17;4.67;;;13.60;1.00;;;;;;4858207;28;20239;-76
2021/03/31 07:45:18;;;;;;;4.77;4.37;;;13.90;1.00;;;;;;4853762;28;20218;-75
2021/03/31 07:47:41;;;;;;;4.60;4.20;;;14.10;1.00;;;;;;4842617;28;20248;-76
2021/03/31 07:50:05;;;;;;;4.03;3.73;;;14.10;1.00;;;;;;4854643;28;20190;-75
2021/03/31 07:52:53;;;;;;;3.73;3.43;;;14.00;33.50;;;;;;4853731;28;20276;-74
2021/03/31 07:55:32;;;;;;;4.47;4.07;;;14.50;1.00;;;;;;4852686;28;20190;-75
2021/03/31 07:58:22;;;;;;;8.27;7.53;;;14.40;1.00;;;;;;4847943;28;20232;-75
2021/03/31 08:01:04;;;;;;;9.00;8.17;;;14.60;1.00;;;;;;4855022;28;20256;-77
2021/03/31 08:03:28;;;;;;;5.30;4.67;;;14.70;99.90;;;;;;4853159;28;20178;-74
2021/03/31 08:06:02;;;;;;;3.53;3.23;;;14.70;99.90;;;;;;4856192;28;20667;-73
2021/03/31 08:08:25;;;;;;;4.03;3.70;;;15.30;99.90;;;;;;4853973;28;20210;-72
2021/03/31 08:10:50;;;;;;;2.97;2.67;;;15.10;1.30;;;;;;4843745;28;20240;-74
2021/03/31 08:13:35;;;;;;;2.63;2.47;;;16.50;99.90;;;;;;4873360;28;20288;-75
2021/03/31 08:15:59;;;;;;;2.90;2.53;;;17.00;39.30;;;;;;4846815;28;20205;-75
2021/03/31 08:18:22;;;;;;;3.80;3.50;;;17.20;1.00;;;;;;4857212;28;20186;-74
2021/03/31 08:20:45;;;;;;;2.00;1.90;;;17.30;1.00;;;;;;4857849;28;20199;-76
2021/03/31 08:23:07;;;;;;;1.63;1.53;;;17.00;1.00;;;;;;4857631;28;20186;-73
2021/03/31 08:25:31;;;;;;;1.57;1.47;;;17.60;1.00;;;;;;4852653;28;20268;-73
2021/03/31 08:27:59;;;;;;;1.60;1.50;;;17.30;1.00;;;;;;4850673;28;20197;-74
2021/03/31 08:30:23;;;;;;;1.33;1.23;;;17.30;1.00;;;;;;4856919;28;20217;-73
2021/03/31 08:32:46;;;;;;;1.47;1.37;;;17.60;1.00;;;;;;4855469;28;20210;-74
2021/03/31 08:35:11;;;;;;;0.97;0.97;;;18.40;1.00;;;;;;4857015;28;20190;-73
2021/03/31 08:37:33;;;;;;;0.97;0.97;;;19.30;1.00;;;;;;4855914;28;20241;-72
2021/03/31 08:40:04;;;;;;;0.83;0.83;;;19.00;1.00;;;;;;4857025;28;20233;-75
2021/03/31 08:42:26;;;;;;;0.83;0.83;;;19.30;1.00;;;;;;4855838;28;20198;-72
2021/03/31 08:44:53;;;;;;;0.70;0.70;;;19.30;1.00;;;;;;4837427;28;20198;-74
2021/03/31 08:47:18;;;;;;;0.70;0.70;;;19.40;1.00;;;;;;4853457;28;20268;-73
2021/03/31 08:49:41;;;;;;;0.53;0.53;;;19.20;1.00;;;;;;4856284;28;20652;-73
2021/03/31 08:52:06;;;;;;;0.70;0.70;;;19.40;1.00;;;;;;4857161;28;20244;-73
2021/03/31 08:54:39;;;;;;;0.67;0.67;;;19.70;1.00;;;;;;4855274;28;20618;-72
2021/03/31 08:57:02;;;;;;;1.07;1.00;;;19.70;1.00;;;;;;4855973;28;20279;-73
2021/03/31 08:59:31;;;;;;;7.53;2.07;;;19.90;1.00;;;;;;4855668;28;20331;-72
2021/03/31 09:01:54;;;;;;;4.10;1.17;;;20.20;1.00;;;;;;4846788;28;20230;-72
2021/03/31 09:04:22;;;;;;;12.17;2.20;;;20.40;1.00;;;;;;4853514;28;20174;-73
2021/03/31 09:06:44;;;;;;;21.03;3.40;;;;;;;;;;4836987;28;20199;-73
2021/03/31 09:09:07;;;;;;;8.67;1.67;;;;;;;;;;4853963;28;20730;-72
2021/03/31 09:11:30;;;;;;;8.00;1.60;;;21.20;1.00;;;;;;4855697;28;20267;-73
2021/03/31 09:13:53;;;;;;;2.77;0.70;;;;;;;;;;4856661;28;20252;-72
2021/03/31 09:16:15;;;;;;;3.63;0.93;;;;;;;;;;4856712;28;20210;-72
2021/03/31 09:18:41;;;;;;;10.37;1.90;;;23.80;99.90;;;;;;4856518;28;20224;-72
2021/03/31 09:21:05;;;;;;;4.47;0.97;;;25.20;1.00;;;;;;4856815;28;20556;-72
2021/03/31 09:23:28;;;;;;;9.23;1.60;;;;;;;;;;4852808;28;20262;-72
2021/03/31 09:25:55;;;;;;;18.07;2.70;;;30.30;95.20;;;;;;4852792;28;20186;-73
2021/03/31 09:28:17;;;;;;;6.03;1.13;;;;;;;;;;4855434;28;20644;-74
2021/03/31 09:30:40;;;;;;;14.10;2.73;;;34.90;1.00;;;;;;4855135;28;20235;-75
2021/03/31 09:33:06;;;;;;;6.63;1.23;;;;;;;;;;4855396;28;20205;-75
2021/03/31 09:35:28;;;;;;;15.73;2.30;;;37.80;33.70;;;;;;4851796;28;20259;-74
2021/03/31 09:37:53;;;;;;;14.35;2.00;;;39.20;99.90;;;;;;4829897;28;20747;-73
2021/03/31 09:40:20;;;;;;;15.52;11.85;;;40.10;99.90;;;;;;4855921;28;20208;-73
2021/03/31 09:42:43;;;;;;;108.65;77.20;;;40.80;1.00;;;;;;4856073;28;20728;-74
2021/03/31 09:45:09;;;;;;;29.65;26.80;;;41.80;99.90;;;;;;4856180;28;20194;-74
2021/03/31 09:47:34;;;;;;;8.10;1.33;;;42.00;99.90;;;;;;4871235;28;20663;-74
2021/03/31 09:49:57;;;;;;;14.73;2.15;;;41.90;99.90;;;;;;4855494;28;20190;-73
2021/03/31 09:52:25;;;;;;;10.80;1.73;;;43.00;99.90;;;;;;4856003;28;20205;-74
2021/03/31 09:54:48;;;;;;;26.55;3.88;;;43.30;1.00;;;;;;4854362;28;20252;-74
2021/03/31 09:57:10;;;;;;;9.10;1.55;;;;;;;;;;4855443;28;20729;-74
2021/03/31 09:59:33;;;;;;;9.93;1.73;;;44.00;99.90;;;;;;4854810;28;20232;-73
2021/03/31 10:01:56;;;;;;;11.15;1.85;;;44.10;1.00;;;;;;4853283;28;20237;-74
2021/03/31 10:04:18;;;;;;;15.32;2.35;;;44.00;1.00;;;;;;4853523;28;20189;-74
2021/03/31 10:06:41;;;;;;;12.82;2.42;;;44.40;1.00;;;;;;4855085;28;20254;-74
2021/03/31 10:09:14;;;;;;;8.73;1.63;;;45.00;1.00;;;;;;4853758;28;20177;-74
2021/03/31 10:11:38;;;;;;;8.60;1.55;;;45.10;99.90;;;;;;4855977;28;20240;-74
2021/03/31 10:14:01;;;;;;;12.30;2.13;;;;;;;;;;4854699;28;20206;-74
2021/03/31 10:16:34;;;;;;;11.63;1.85;;;47.60;99.90;;;;;;4853536;28;20602;-74
2021/03/31 10:18:56;;;;;;;10.20;2.70;;;47.00;1.00;;;;;;4850867;28;20651;-75
2021/03/31 10:21:18;;;;;;;5.85;1.83;;;47.20;1.00;;;;;;4855419;28;20236;-75
2021/03/31 10:23:47;;;;;;;3.28;1.30;;;47.40;1.00;;;;;;4851668;28;20226;-75
2021/03/31 10:26:19;;;;;;;4.43;1.42;;;48.30;1.00;;;;;;4842846;28;20189;-75
2021/03/31 10:28:42;;;;;;;7.65;2.20;;;48.90;1.00;;;;;;4854561;28;20194;-74
2021/03/31 10:31:31;;;;;;;5.70;1.65;;;49.00;1.00;;;;;;4856149;28;20648;-75
2021/03/31 10:33:53;;;;;;;3.35;1.00;;;49.20;99.90;;;;;;4855923;28;20244;-75
2021/03/31 10:36:37;;;;;;;4.55;1.25;;;49.60;1.00;;;;;;4855563;28;20275;-74
2021/03/31 10:39:22;;;;;;;5.15;1.42;;;50.30;1.00;;;;;;4851939;28;20213;-75
2021/03/31 10:46:47;;;;;;;6.72;1.92;;;50.60;1.00;;;;;;4853519;28;20182;-76
2021/03/31 10:47:18;;;;;;;4.40;1.45;;;51.10;1.00;;;;;;4859530;28;20177;-74
2021/03/31 10:49:45;;;;;;;6.40;1.88;;;51.20;99.90;;;;;;4858814;28;20189;-75
2021/03/31 10:52:08;;;;;;;4.68;1.58;;;51.20;99.90;;;;;;4858044;28;20679;-74
2021/03/31 10:54:31;;;;;;;10.23;2.80;;;51.70;99.90;;;;;;4857721;28;20189;-73
2021/03/31 10:56:54;;;;;;;2.63;1.00;;;51.90;99.90;;;;;;4859538;28;20271;-74
2021/03/31 10:59:16;;;;;;;5.82;1.67;;;51.70;99.90;;;;;;4858578;28;20597;-73
2021/03/31 11:01:39;;;;;;;10.00;2.53;;;51.40;1.00;;;;;;4848861;28;20230;-74
2021/03/31 11:04:01;;;;;;;9.43;2.55;;;52.20;1.00;;;;;;4855142;28;20682;-74
2021/03/31 11:06:24;;;;;;;4.15;1.48;;;;;;;;;;4852960;28;20194;-74
2021/03/31 11:08:46;;;;;;;5.88;1.83;;;52.30;99.90;;;;;;4856273;28;20193;-74
2021/03/31 11:11:09;;;;;;;4.40;1.80;;;52.50;99.90;;;;;;4856694;28;20189;-75
2021/03/31 11:13:31;;;;;;;4.38;1.85;;;;;;;;;;4840173;28;20197;-74
2021/03/31 11:15:54;;;;;;;2.05;1.10;;;53.10;99.90;;;;;;4857743;28;20189;-74
2021/03/31 11:18:23;;;;;;;3.55;1.55;;;53.40;99.90;;;;;;4857626;28;20216;-75
2021/03/31 11:26:01;;;;;;;1.52;1.20;;;53.20;99.90;;;;;;4857729;28;20235;-75
2021/03/31 11:28:24;;;;;;;3.15;1.77;;;52.90;99.90;;;;;;4857396;28;20181;-75
2021/03/31 11:30:46;;;;;;;2.90;1.73;;;53.20;99.90;;;;;;4857333;28;20281;-75
2021/03/31 11:33:08;;;;;;;2.20;1.33;;;53.20;99.90;;;;;;4854061;28;20193;-73
2021/03/31 11:35:32;;;;;;;3.50;1.80;;;53.00;99.90;;;;;;4839015;28;20190;-74
2021/03/31 11:37:54;;;;;;;1.70;1.20;;;53.20;99.90;;;;;;4841063;28;20225;-75
2021/03/31 11:40:16;;;;;;;4.75;2.05;;;53.00;99.90;;;;;;4857834;28;20243;-74
2021/03/31 11:42:38;;;;;;;7.07;3.35;;;53.20;99.90;;;;;;4857081;28;20227;-76
2021/03/31 11:45:01;;;;;;;2.47;1.45;;;53.70;99.90;;;;;;4839559;28;20567;-75
2021/03/31 11:47:23;;;;;;;2.67;1.42;;;52.80;99.90;;;;;;4858203;28;20224;-75
2021/03/31 11:49:45;;;;;;;4.20;1.98;;;52.40;99.90;;;;;;4839671;28;20668;-75
2021/03/31 11:52:08;;;;;;;2.50;1.40;;;52.40;99.90;;;;;;4856648;28;20205;-75
2021/03/31 11:54:30;;;;;;;6.47;2.55;;;52.50;99.90;;;;;;4857379;28;20650;-75
2021/03/31 11:56:52;;;;;;;1.48;1.08;;;52.50;99.90;;;;;;4857691;28;20225;-74
2021/03/31 11:59:14;;;;;;;4.38;1.73;;;53.00;99.90;;;;;;4857220;28;20251;-74
2021/03/31 12:01:36;;;;;;;5.43;2.03;;;53.10;99.90;;;;;;4852506;28;20232;-72
2021/03/31 12:03:58;;;;;;;2.88;1.23;;;53.10;99.90;;;;;;4857257;28;20201;-73
2021/03/31 12:06:20;;;;;;;5.05;1.58;;;53.20;99.90;;;;;;4857789;28;20189;-72
2021/03/31 12:08:46;;;;;;;8.52;2.47;;;53.60;99.90;;;;;;4857862;28;20190;-71
2021/03/31 12:11:08;;;;;;;2.70;1.23;;;54.20;99.90;;;;;;4841524;28;20201;-73
2021/03/31 12:13:30;;;;;;;5.38;1.83;;;53.70;99.90;;;;;;4856624;28;20781;-73
2021/03/31 12:15:53;;;;;;;3.75;1.40;;;53.70;99.90;;;;;;4857581;28;20247;-73
2021/03/31 12:18:15;;;;;;;1.90;1.20;;;54.10;99.90;;;;;;4857798;28;20197;-72
2021/03/31 12:20:37;;;;;;;6.95;2.25;;;;;;;;;;4857350;28;20243;-72
2021/03/31 12:22:59;;;;;;;6.97;1.90;;;52.80;1.00;;;;;;4856190;28;20232;-73
2021/03/31 12:25:23;;;;;;;7.10;2.05;;;52.80;99.90;;;;;;4854898;28;20204;-72
2021/03/31 12:27:47;;;;;;;9.13;2.42;;;52.90;1.00;;;;;;4857898;28;20186;-73
2021/03/31 12:30:12;;;;;;;5.05;1.73;;;53.00;99.90;;;;;;4856253;28;20659;-72
2021/03/31 12:32:34;;;;;;;7.20;2.38;;;53.50;99.90;;;;;;4857106;28;20735;-72
2021/03/31 12:34:56;;;;;;;4.63;1.55;;;54.20;99.90;;;;;;4853004;28;20189;-75
2021/03/31 12:37:19;;;;;;;7.05;1.92;;;54.50;99.90;;;;;;4839878;28;20265;-76
2021/03/31 12:39:41;;;;;;;7.90;2.13;;;54.70;99.90;;;;;;4857647;28;20189;-76
2021/03/31 12:42:04;;;;;;;6.38;1.95;;;54.80;99.90;;;;;;4856311;28;20220;-77